Time;durP1;ratioP1;P1;durP2;ratioP2;P2;SDS_P1;SDS_P2;PMS_P1;PMS_P2;Temp;Humidity;BMP_temperature;BMP_pressure;BME280_temperature;BME280_humidity;BME280_pressure;Samples;Min_cycle;Max_cycle;Signal;HPM_P1;HPM_P2
2021/06/23 00:01:20;;;;;;;;;8.75;8.75;;;;;31.42;53.50;98638.91;5014860;28;8848;-72
2021/06/23 00:03:50;;;;;;;;;8.00;8.00;;;;;31.40;53.02;98635.84;5014875;28;8853;-71
2021/06/23 00:06:18;;;;;;;;;9.75;9.00;;;;;31.40;52.79;98644.78;5013847;28;8837;-72
2021/06/23 00:08:47;;;;;;;;;9.00;9.00;;;;;31.35;53.64;98636.28;5014276;28;8939;-72
2021/06/23 00:11:15;;;;;;;;;8.00;8.00;;;;;31.42;52.95;98650.59;5014301;28;8832;-71
2021/06/23 00:13:44;;;;;;;;;6.50;6.50;;;;;31.44;53.14;98639.28;5014966;28;8907;-71
2021/06/23 00:16:12;;;;;;;;;7.75;7.75;;;;;31.44;52.99;98639.28;5014256;28;8833;-71
2021/06/23 00:18:41;;;;;;;;;8.00;8.00;;;;;31.47;52.87;98644.69;5014092;28;8968;-72
2021/06/23 00:21:09;;;;;;;;;7.20;7.20;;;;;31.53;53.16;98639.56;5013865;28;8946;-72
2021/06/23 00:23:38;;;;;;;;;6.60;6.60;;;;;31.50;53.08;98626.75;5014336;28;8837;-71
2021/06/23 00:26:07;;;;;;;;;7.25;6.25;;;;;31.56;53.05;98641.47;5013961;28;8856;-71
2021/06/23 00:28:35;;;;;;;;;6.75;6.75;;;;;31.58;53.25;98649.25;5013900;28;8841;-72
2021/06/23 00:31:04;;;;;;;;;7.75;7.75;;;;;31.60;52.65;98652.31;5014508;28;9653;-72
2021/06/23 00:33:33;;;;;;;;;7.00;7.00;;;;;31.63;53.33;98654.22;5028830;28;8845;-71
2021/06/23 00:36:01;;;;;;;;;8.25;8.25;;;;;31.65;52.85;98651.88;5013882;28;8833;-71
2021/06/23 00:38:30;;;;;;;;;7.00;7.00;;;;;31.65;52.65;98655.38;5013692;28;8858;-72
2021/06/23 00:40:59;;;;;;;;;5.60;5.60;;;;;31.66;52.51;98648.75;5013672;28;8916;-72
2021/06/23 00:43:27;;;;;;;;;7.75;7.75;;;;;31.74;52.07;98660.34;5013643;28;8988;-72
2021/06/23 00:45:56;;;;;;;;;9.00;9.00;;;;;31.75;52.85;98659.94;5013709;28;8853;-72
2021/06/23 00:48:29;;;;;;;;;6.00;6.00;;;;;31.78;52.44;98666.53;5013720;28;8858;-71
2021/06/23 00:51:00;;;;;;;;;7.75;7.75;;;;;31.79;52.31;98671.56;5014031;28;8857;-70
2021/06/23 00:53:29;;;;;;;;;9.20;8.00;;;;;31.81;51.54;98682.06;5013378;28;8861;-69
2021/06/23 00:55:59;;;;;;;;;4.75;4.75;;;;;31.83;52.63;98676.97;5012054;28;8864;-71
2021/06/23 00:58:28;;;;;;;;;7.20;7.20;;;;;31.79;51.27;98677.03;5012853;28;8845;-72
2021/06/23 01:00:57;;;;;;;;;5.60;5.60;;;;;31.86;50.69;98673.44;5012779;28;8945;-72
2021/06/23 01:03:26;;;;;;;;;6.40;6.40;;;;;31.92;50.68;98679.19;5013269;28;8854;-72
2021/06/23 01:05:55;;;;;;;;;5.80;5.80;;;;;31.89;51.23;98678.06;5012282;28;8862;-69
2021/06/23 01:08:24;;;;;;;;;4.80;4.80;;;;;31.97;51.02;98684.97;5027928;28;8928;-71
2021/06/23 01:10:53;;;;;;;;;7.00;7.00;;;;;31.99;51.15;98692.75;5028067;28;8841;-71
2021/06/23 01:13:36;;;;;;;;;0.20;0.20;;;;;32.04;51.78;98705.94;5013293;28;8965;-70
2021/06/23 01:16:07;;;;;;;;;6.00;6.00;;;;;31.99;51.04;98698.19;5012781;28;8849;-71
2021/06/23 01:18:37;;;;;;;;;6.40;6.40;;;;;31.92;51.00;98698.31;5012110;28;8853;-70
2021/06/23 01:21:08;;;;;;;;;6.80;6.80;;;;;31.99;51.65;98709.88;5012670;28;8967;-71
2021/06/23 01:23:37;;;;;;;;;6.00;5.60;;;;;31.92;50.84;98701.81;5012701;28;8841;-71
2021/06/23 01:26:05;;;;;;;;;6.60;6.60;;;;;31.87;51.21;98713.16;5011631;28;8849;-72
2021/06/23 01:28:34;;;;;;;;;5.00;5.00;;;;;31.86;51.75;98724.50;5012366;28;8853;-71
2021/06/23 01:31:03;;;;;;;;;3.40;3.40;;;;;31.86;51.44;98730.72;5013084;28;8850;-71
2021/06/23 01:33:35;;;;;;;;;5.20;5.20;;;;;31.84;51.77;98735.81;5027801;28;8845;-70
2021/06/23 01:36:04;;;;;;;;;4.20;4.20;;;;;31.83;51.56;98737.00;5027431;28;9691;-72
2021/06/23 01:38:33;;;;;;;;;7.60;7.60;;;;;31.82;51.58;98732.72;5012602;28;8845;-72
2021/06/23 01:41:01;;;;;;;;;6.20;6.20;;;;;31.80;51.57;98729.63;5012614;28;8927;-71
2021/06/23 01:43:30;;;;;;;;;7.00;6.40;;;;;31.84;51.29;98729.59;5012107;28;8865;-71
2021/06/23 01:45:59;;;;;;;;;4.00;4.00;;;;;31.86;51.09;98727.22;5012491;28;8861;-72
2021/06/23 01:48:28;;;;;;;;;5.00;5.00;;;;;31.88;51.40;98727.59;5012009;28;8857;-72
2021/06/23 01:51:03;;;;;;;;;5.00;5.00;;;;;31.90;51.12;98722.50;5012031;28;9603;-71
2021/06/23 01:53:34;;;;;;;;;4.40;4.40;;;;;31.92;51.43;98717.41;5012043;28;8846;-72
2021/06/23 01:56:07;;;;;;;;;4.40;4.40;;;;;31.94;51.23;98720.50;5012472;28;8919;-71
2021/06/23 01:58:40;;;;;;;;;4.40;4.40;;;;;31.95;51.28;98716.56;5011849;28;8927;-71
2021/06/23 02:01:30;;;;;;;;;6.00;6.00;;;;;31.99;51.94;98722.75;5012056;28;8834;-71
2021/06/23 02:04:09;;;;;;;;;6.00;6.00;;;;;31.99;51.35;98717.31;5011834;28;8955;-72
2021/06/23 02:06:50;;;;;;;;;5.00;5.00;;;;;32.05;51.73;98718.38;5011918;28;8959;-71
2021/06/23 02:09:34;;;;;;;;;5.00;5.00;;;;;32.09;51.28;98719.13;5010653;28;8962;-70
2021/06/23 02:12:24;;;;;;;;;5.60;5.60;;;;;32.09;50.92;98717.16;5011500;28;8931;-73
2021/06/23 02:14:57;;;;;;;;;4.60;4.60;;;;;32.13;51.06;98727.25;5008766;28;8845;-72
2021/06/23 02:17:27;;;;;;;;;5.40;5.40;;;;;32.13;50.74;98719.84;5011247;28;8927;-71
2021/06/23 02:19:59;;;;;;;;;2.60;2.60;;;;;32.11;50.23;98714.78;5009005;28;8838;-72
2021/06/23 02:22:32;;;;;;;;;2.00;2.00;;;;;32.05;50.15;98707.47;5010734;28;9649;-73
2021/06/23 02:25:07;;;;;;;;;3.80;3.80;;;;;32.16;50.43;98723.69;5011586;28;8894;-72
2021/06/23 02:27:40;;;;;;;;;5.00;5.00;;;;;32.17;50.39;98725.25;5009124;28;8845;-74
2021/06/23 02:30:11;;;;;;;;;5.00;5.00;;;;;32.07;49.93;98718.75;5015009;28;8829;-74
2021/06/23 02:32:41;;;;;;;;;2.80;2.80;;;;;31.96;50.13;98707.97;5016752;28;9206;-74
2021/06/23 02:35:14;;;;;;;;;3.40;3.40;;;;;32.16;50.37;98735.38;5014693;28;9351;-74
2021/06/23 02:37:43;;;;;;;;;4.80;4.80;;;;;32.19;50.17;98726.38;5015335;28;8972;-74
2021/06/23 02:40:13;;;;;;;;;4.00;4.00;;;;;32.21;49.81;98732.19;5014559;28;8860;-72
2021/06/23 02:42:41;;;;;;;;;2.80;2.80;;;;;32.24;49.50;98731.41;5014583;28;8849;-73
2021/06/23 02:45:17;;;;;;;;;3.80;3.80;;;;;32.28;49.70;98726.66;5014535;28;8849;-72
2021/06/23 02:47:48;;;;;;;;;3.20;3.20;;;;;32.29;49.98;98733.66;5029955;28;8845;-72
2021/06/23 02:50:17;;;;;;;;;4.60;4.60;;;;;32.29;49.77;98736.41;5010756;28;9594;-72
2021/06/23 02:52:45;;;;;;;;;5.00;5.00;;;;;32.28;49.83;98731.34;5013719;28;8834;-72
2021/06/23 02:55:19;;;;;;;;;4.20;4.20;;;;;32.33;49.67;98747.28;5014235;28;9570;-72
2021/06/23 02:57:49;;;;;;;;;2.40;2.40;;;;;32.35;49.61;98745.66;5014246;28;8846;-70
2021/06/23 03:00:19;;;;;;;;;4.40;4.40;;;;;32.37;49.16;98737.06;5010793;28;9003;-71
2021/06/23 03:02:48;;;;;;;;;3.60;3.20;;;;;32.34;49.69;98735.16;5012259;28;8880;-71
2021/06/23 03:05:17;;;;;;;;;4.00;4.00;;;;;32.38;49.58;98742.13;5024772;28;8846;-72
2021/06/23 03:07:45;;;;;;;;;4.00;4.00;;;;;32.33;49.33;98725.44;5014286;28;8891;-72
2021/06/23 03:10:15;;;;;;;;;4.80;4.80;;;;;32.41;49.63;98726.88;5013773;28;8857;-71
2021/06/23 03:12:44;;;;;;;;;4.00;4.00;;;;;32.49;49.17;98731.03;5013600;28;8857;-71
2021/06/23 03:15:13;;;;;;;;;3.40;3.40;;;;;32.53;49.30;98731.72;5029409;28;8853;-72
2021/06/23 03:17:41;;;;;;;;;3.80;3.80;;;;;32.53;49.38;98729.00;5014571;28;8860;-71
2021/06/23 03:20:11;;;;;;;;;6.80;6.80;;;;;32.57;49.53;98728.94;5014501;28;8849;-69
2021/06/23 03:22:39;;;;;;;;;4.40;4.40;;;;;32.59;49.74;98719.13;5029554;28;8849;-70
2021/06/23 03:25:08;;;;;;;;;4.60;4.60;;;;;32.60;49.71;98706.25;5014036;28;8935;-70
2021/06/23 03:27:39;;;;;;;;;4.00;4.00;;;;;32.68;49.34;98711.19;5014168;28;8943;-69
2021/06/23 03:30:08;;;;;;;;;6.80;4.20;;;;;32.74;49.75;98716.94;5013583;28;8962;-71
2021/06/23 03:32:37;;;;;;;;;3.00;3.00;;;;;32.78;49.24;98712.22;5013749;28;8830;-69
2021/06/23 03:35:05;;;;;;;;;4.80;4.80;;;;;32.86;48.85;98715.59;5013962;28;8837;-69
2021/06/23 03:37:34;;;;;;;;;4.60;4.60;;;;;32.90;49.16;98716.31;5013519;28;9680;-72
2021/06/23 03:40:03;;;;;;;;;4.20;4.20;;;;;32.95;49.03;98713.88;5012604;28;8853;-69
2021/06/23 03:42:32;;;;;;;;;3.40;3.40;;;;;33.00;49.73;98713.41;5011033;28;8878;-70
2021/06/23 03:45:01;;;;;;;;;4.00;4.00;;;;;33.07;49.20;98713.28;5013912;28;8869;-70
2021/06/23 03:47:29;;;;;;;;;5.40;5.40;;;;;33.14;48.77;98703.41;5013769;28;8916;-70
2021/06/23 03:49:59;;;;;;;;;3.80;3.80;;;;;33.21;48.86;98700.53;5013064;28;9613;-68
2021/06/23 03:52:27;;;;;;;;;3.40;3.40;;;;;33.28;47.99;98700.41;5012781;28;8837;-69
2021/06/23 03:54:55;;;;;;;;;3.40;3.40;;;;;33.30;47.70;98696.09;5013336;28;8923;-69
2021/06/23 03:57:24;;;;;;;;;2.20;2.20;;;;;33.34;47.58;98687.81;5012905;28;9551;-69
2021/06/23 03:59:53;;;;;;;;;3.80;3.80;;;;;33.33;47.57;98678.06;5013291;28;8915;-69
2021/06/23 04:02:22;;;;;;;;;2.80;2.80;;;;;33.39;47.84;98676.38;5013495;28;8865;-69
2021/06/23 04:04:50;;;;;;;;;3.40;3.20;;;;;33.39;47.39;98673.66;5013691;28;8854;-70
2021/06/23 04:07:19;;;;;;;;;3.20;3.20;;;;;33.47;47.57;98675.03;5013397;28;8861;-70
2021/06/23 04:09:47;;;;;;;;;2.20;2.20;;;;;33.56;46.96;98669.78;5013067;28;8873;-69
2021/06/23 04:12:16;;;;;;;;;3.80;3.80;;;;;33.55;46.51;98659.25;5013024;28;8944;-71
2021/06/23 04:14:45;;;;;;;;;2.80;2.80;;;;;33.70;46.72;98666.75;5013736;28;8849;-69
2021/06/23 04:17:13;;;;;;;;;3.40;3.40;;;;;33.76;46.55;98660.78;5013486;28;8857;-69
2021/06/23 04:19:42;;;;;;;;;3.00;3.00;;;;;33.83;46.62;98652.41;5013465;28;8899;-69
2021/06/23 04:22:11;;;;;;;;;3.60;3.60;;;;;33.90;46.07;98654.97;5013460;28;9554;-69
2021/06/23 04:24:39;;;;;;;;;3.80;3.80;;;;;33.94;46.61;98645.50;5011045;28;8873;-69
2021/06/23 04:27:08;;;;;;;;;0.00;0.00;;;;;34.03;46.05;98650.38;5011385;28;8830;-70
2021/06/23 04:29:37;;;;;;;;;3.40;3.40;;;;;34.06;46.84;98648.75;5012925;28;8826;-74
2021/06/23 04:32:06;;;;;;;;;2.60;2.60;;;;;34.06;46.11;98646.78;5013138;28;8841;-70
2021/06/23 04:34:35;;;;;;;;;4.60;4.60;;;;;34.12;46.29;98636.09;5026981;28;8849;-70
2021/06/23 04:37:04;;;;;;;;;4.00;4.00;;;;;34.19;45.21;98652.34;5012914;28;8935;-70
2021/06/23 04:39:33;;;;;;;;;4.80;4.80;;;;;34.19;45.00;98647.66;5011662;28;9589;-70
2021/06/23 04:42:02;;;;;;;;;3.00;3.00;;;;;33.97;45.58;98600.84;5011549;28;8873;-72
2021/06/23 04:44:30;;;;;;;;;2.60;2.60;;;;;34.36;46.09;98642.97;5010919;28;8914;-71
2021/06/23 04:46:59;;;;;;;;;3.40;3.40;;;;;34.43;46.22;98647.50;5011011;28;8861;-71
2021/06/23 04:49:28;;;;;;;;;3.20;3.20;;;;;34.49;45.45;98637.56;5012024;28;9649;-71
2021/06/23 04:51:57;;;;;;;;;3.60;3.60;;;;;34.55;46.03;98639.38;5012529;28;9058;-71
2021/06/23 04:54:25;;;;;;;;;3.00;3.00;;;;;34.64;45.73;98634.03;5027397;28;8873;-74
2021/06/23 04:56:54;;;;;;;;;3.60;3.60;;;;;34.72;44.87;98631.88;5011805;28;8864;-70
2021/06/23 04:59:23;;;;;;;;;4.20;4.20;;;;;34.75;45.11;98625.53;5011993;28;8861;-70
2021/06/23 05:01:51;;;;;;;;;0.20;0.20;;;;;34.89;45.20;98636.16;5012361;28;8930;-70
2021/06/23 05:04:20;;;;;;;;;4.20;4.20;;;;;34.93;44.96;98620.38;5012430;28;9035;-70
2021/06/23 05:06:49;;;;;;;;;3.20;3.20;;;;;34.99;45.74;98628.84;5012137;28;8908;-69
2021/06/23 05:09:17;;;;;;;;;3.20;3.20;;;;;35.08;45.04;98620.75;5012596;28;8861;-71
2021/06/23 05:11:46;;;;;;;;;2.20;2.20;;;;;35.13;45.76;98616.69;5012778;28;8865;-71
2021/06/23 05:14:15;;;;;;;;;6.00;6.00;;;;;35.18;45.01;98603.22;5011974;28;8861;-70
2021/06/23 05:16:49;;;;;;;;;3.40;3.40;;;;;35.24;44.89;98606.19;5011906;28;8849;-70
2021/06/23 05:19:21;;;;;;;;;4.40;4.40;;;;;35.27;44.63;98597.09;5009980;28;8880;-70
2021/06/23 05:21:51;;;;;;;;;4.20;4.20;;;;;35.30;44.82;98588.78;5012601;28;8872;-70
2021/06/23 05:24:20;;;;;;;;;3.20;3.20;;;;;35.40;44.57;98592.41;5013028;28;9569;-70
2021/06/23 05:26:48;;;;;;;;;3.40;3.40;;;;;35.26;45.08;98563.41;5011176;28;8874;-70
2021/06/23 05:29:19;;;;;;;;;3.00;3.00;;;;;35.41;44.40;98574.75;5008386;28;8868;-70
2021/06/23 05:31:51;;;;;;;;;3.00;3.00;;;;;35.44;43.78;98570.38;5009779;28;8868;-71
2021/06/23 05:34:20;;;;;;;;;2.80;2.80;;;;;35.46;43.63;98563.22;5007792;28;8869;-71
2021/06/23 05:36:49;;;;;;;;;2.80;2.80;;;;;35.55;44.37;98565.31;5009246;28;8891;-70
2021/06/23 05:39:17;;;;;;;;;2.00;2.00;;;;;35.57;44.73;98566.41;5010872;28;8865;-70
2021/06/23 05:41:46;;;;;;;;;3.60;3.60;;;;;35.62;44.17;98556.88;5009959;28;9601;-69
2021/06/23 05:44:15;;;;;;;;;3.20;3.20;;;;;35.66;44.09;98556.75;5010502;28;8954;-70
2021/06/23 05:46:46;;;;;;;;;3.80;3.80;;;;;35.61;43.93;98539.63;5011188;28;8842;-70
2021/06/23 05:49:16;;;;;;;;;2.20;2.20;;;;;35.75;44.24;98545.88;5010091;28;8861;-70
2021/06/23 05:51:44;;;;;;;;;3.20;3.20;;;;;35.77;43.54;98541.50;5011558;28;8841;-70
2021/06/23 05:54:14;;;;;;;;;4.00;4.00;;;;;35.76;44.38;98528.22;5026314;28;9000;-70
2021/06/23 05:56:42;;;;;;;;;3.00;3.00;;;;;35.75;44.05;98530.19;5009374;28;8974;-71
2021/06/23 05:59:11;;;;;;;;;3.60;3.60;;;;;35.73;43.76;98527.13;5010716;28;9610;-70
2021/06/23 06:01:40;;;;;;;;;2.80;2.80;;;;;35.83;43.98;98523.28;5011205;28;8943;-70
2021/06/23 06:04:09;;;;;;;;;3.00;3.00;;;;;35.91;43.55;98507.34;5010432;28;8845;-71
2021/06/23 06:06:37;;;;;;;;;3.80;3.80;;;;;36.00;43.93;98510.19;5009625;28;8837;-70
2021/06/23 06:09:10;;;;;;;;;4.00;4.00;;;;;36.08;43.65;98505.97;5009048;28;8849;-70
2021/06/23 06:11:38;;;;;;;;;5.20;5.20;;;;;36.11;42.83;98499.59;5011857;28;8866;-69
2021/06/23 06:14:10;;;;;;;;;3.20;3.20;;;;;36.16;43.22;98501.03;5011404;28;8861;-70
2021/06/23 06:16:43;;;;;;;;;4.60;4.60;;;;;36.21;43.27;98492.97;5011702;28;8865;-69
2021/06/23 06:19:12;;;;;;;;;3.00;3.00;;;;;36.29;43.98;98490.00;5010897;28;8943;-73
2021/06/23 06:21:41;;;;;;;;;2.80;2.80;;;;;36.24;43.38;98477.59;5011900;28;8879;-72
2021/06/23 06:24:10;;;;;;;;;2.80;2.80;;;;;36.29;43.55;98482.53;5011683;28;9586;-71
2021/06/23 06:26:39;;;;;;;;;4.40;4.40;;;;;36.30;43.83;98475.84;5011776;28;8928;-72
2021/06/23 06:29:08;;;;;;;;;3.20;3.20;;;;;36.29;43.27;98474.31;5011307;28;8963;-71
2021/06/23 06:31:36;;;;;;;;;3.40;3.40;;;;;36.26;43.05;98461.44;5026722;28;8850;-72
2021/06/23 06:34:06;;;;;;;;;4.80;4.80;;;;;36.22;43.68;98449.81;5011612;28;9626;-71
2021/06/23 06:36:34;;;;;;;;;5.00;5.00;;;;;36.22;44.24;98450.56;5011800;28;8872;-70
2021/06/23 06:39:03;;;;;;;;;3.40;3.40;;;;;36.11;44.00;98450.19;5011684;28;8877;-70
2021/06/23 06:41:32;;;;;;;;;4.00;2.20;;;;;36.01;43.78;98445.06;5011696;28;8849;-70
2021/06/23 06:44:01;;;;;;;;;5.00;5.00;;;;;35.92;43.10;98443.78;5011477;28;8861;-70
2021/06/23 06:46:29;;;;;;;;;3.20;3.20;;;;;35.89;43.60;98432.91;5011358;28;8861;-70
2021/06/23 06:48:58;;;;;;;;;3.00;3.00;;;;;35.90;43.02;98428.97;5011250;28;8837;-70
2021/06/23 06:51:31;;;;;;;;;4.80;4.80;;;;;35.85;43.49;98435.00;5010643;28;8833;-71
2021/06/23 06:54:01;;;;;;;;;2.80;2.80;;;;;35.85;42.77;98435.78;5009243;28;8838;-71
2021/06/23 06:56:33;;;;;;;;;2.20;2.20;;;;;35.81;43.14;98428.88;5008789;28;9582;-76
2021/06/23 06:59:02;;;;;;;;;4.00;4.00;;;;;35.85;42.47;98418.53;5010728;28;8838;-70
2021/06/23 07:01:31;;;;;;;;;3.40;3.40;;;;;35.86;43.49;98412.59;5008438;28;8846;-71
2021/06/23 07:03:59;;;;;;;;;3.00;3.00;;;;;35.91;42.79;98405.78;5009906;28;8857;-71
2021/06/23 07:06:30;;;;;;;;;3.00;3.00;;;;;35.94;43.33;98410.38;5025366;28;8857;-71
2021/06/23 07:08:58;;;;;;;;;2.40;2.40;;;;;35.91;43.33;98400.28;5010759;28;8911;-71
2021/06/23 07:11:27;;;;;;;;;2.20;2.20;;;;;35.90;43.52;98398.75;5010237;28;8867;-70
2021/06/23 07:13:56;;;;;;;;;3.00;3.00;;;;;35.88;42.91;98384.72;5011058;28;8857;-71
2021/06/23 07:16:25;;;;;;;;;3.00;3.00;;;;;35.93;42.77;98389.63;5013053;28;8834;-69
2021/06/23 07:18:54;;;;;;;;;2.20;2.20;;;;;35.97;42.77;98386.75;5014503;28;8891;-70
2021/06/23 07:21:22;;;;;;;;;2.20;2.20;;;;;36.05;42.35;98383.31;5014388;28;8845;-71
2021/06/23 07:23:57;;;;;;;;;3.60;3.60;;;;;36.14;42.26;98377.13;5014525;28;8873;-72
2021/06/23 07:26:27;;;;;;;;;2.80;2.80;;;;;36.24;43.19;98379.47;5014741;28;8845;-71
2021/06/23 07:29:00;;;;;;;;;2.60;2.60;;;;;36.26;42.25;98382.56;5014368;28;8939;-70
2021/06/23 07:31:40;;;;;;;;;2.40;2.40;;;;;36.24;42.77;98376.75;5014689;28;8841;-72
2021/06/23 07:36:59;;;;;;;;;2.00;2.00;;;;;36.38;40.40;98369.97;5014584;28;8853;-71
2021/06/23 07:39:28;;;;;;;;;1.80;1.80;;;;;36.46;41.63;98373.19;5014689;28;8923;-71
2021/06/23 07:41:56;;;;;;;;;1.60;1.60;;;;;36.47;41.90;98356.28;5014349;28;8888;-72
2021/06/23 07:44:30;;;;;;;;;2.00;2.00;;;;;36.54;41.82;98341.50;5013611;28;8857;-71
2021/06/23 07:47:02;;;;;;;;;2.60;2.60;;;;;36.59;41.49;98346.41;5029048;28;8841;-70
2021/06/23 07:49:34;;;;;;;;;3.00;3.00;;;;;36.73;40.98;98353.31;5014272;28;8972;-70
2021/06/23 07:55:01;;;;;;;;;2.00;2.00;;;;;36.90;41.27;98349.16;5012754;28;8849;-70
2021/06/23 08:13:12;;;;;;;;;2.80;2.80;;;;;37.03;42.04;98314.03;5013569;28;8833;-70
2021/06/23 08:15:42;;;;;;;;;0.80;0.80;;;;;37.06;40.24;98312.38;5012963;28;8929;-71
2021/06/23 08:18:15;;;;;;;;;3.80;3.80;;;;;37.03;40.93;98302.28;5012449;28;8951;-71
2021/06/23 08:20:43;;;;;;;;;5.00;5.00;;;;;37.11;41.27;98303.53;5013562;28;8873;-70
2021/06/23 08:23:12;;;;;;;;;2.80;2.80;;;;;37.01;40.94;98290.97;5012285;28;8915;-70
2021/06/23 08:25:41;;;;;;;;;4.20;4.20;;;;;37.10;41.03;98300.00;5012825;28;8865;-71
2021/06/23 08:28:10;;;;;;;;;4.20;4.20;;;;;37.09;41.32;98303.22;5011896;28;8857;-71
2021/06/23 08:30:38;;;;;;;;;5.00;4.00;;;;;37.02;41.21;98298.00;5026281;28;8854;-71
2021/06/23 08:33:07;;;;;;;;;5.40;5.40;;;;;36.98;41.25;98289.91;5011953;28;9627;-71
2021/06/23 08:35:39;;;;;;;;;4.60;4.60;;;;;37.01;41.14;98293.72;5011926;28;8919;-71
2021/06/23 08:38:07;;;;;;;;;5.40;5.40;;;;;36.97;41.68;98284.84;5012870;28;8927;-72
2021/06/23 08:40:37;;;;;;;;;3.60;3.60;;;;;36.91;41.90;98293.72;5012687;28;8861;-70
2021/06/23 08:43:06;;;;;;;;;4.80;4.80;;;;;36.86;41.44;98279.78;5012272;28;8849;-72
2021/06/23 08:45:34;;;;;;;;;4.80;4.80;;;;;36.85;40.82;98275.50;5012741;28;8849;-70
2021/06/23 08:48:04;;;;;;;;;6.80;6.80;;;;;36.73;41.77;98268.88;5012447;28;8857;-71
2021/06/23 08:50:33;;;;;;;;;4.20;4.20;;;;;36.74;41.86;98278.66;5013005;28;8975;-71
2021/06/23 08:53:01;;;;;;;;;4.40;4.40;;;;;36.70;41.52;98280.03;5011950;28;8846;-71
2021/06/23 08:55:30;;;;;;;;;6.00;6.00;;;;;36.64;42.50;98285.34;5011956;28;8857;-72
2021/06/23 08:57:59;;;;;;;;;3.80;3.80;;;;;36.55;41.83;98286.09;5012008;28;8857;-73
2021/06/23 09:00:27;;;;;;;;;6.40;6.40;;;;;36.44;42.68;98274.75;5027363;28;8854;-72
2021/06/23 09:03:02;;;;;;;;;4.40;4.40;;;;;36.37;43.04;98282.53;5012246;28;8987;-71
2021/06/23 09:05:47;;;;;;;;;6.60;5.80;;;;;36.26;43.56;98291.91;5012054;28;8850;-72
2021/06/23 09:08:33;;;;;;;;;5.80;5.80;;;;;36.11;43.58;98290.16;5011929;28;8837;-71
2021/06/23 09:11:16;;;;;;;;;5.00;5.00;;;;;35.80;44.09;98299.13;5011829;28;8862;-71
2021/06/23 09:13:45;;;;;;;;;5.40;5.40;;;;;35.29;45.40;98282.03;5011353;28;8849;-69
2021/06/23 09:16:13;;;;;;;;;4.00;4.00;;;;;34.52;46.59;98280.63;5011523;28;8830;-69
2021/06/23 09:18:43;;;;;;;;;2.00;2.00;;;;;33.76;47.14;98267.59;5011766;28;8865;-70
2021/06/23 09:21:12;;;;;;;;;0.60;0.60;;;;;33.24;47.81;98286.91;5012169;28;8853;-69
2021/06/23 09:23:58;;;;;;;;;4.00;2.20;;;;;32.85;48.54;98315.19;5012620;28;8857;-70
2021/06/23 09:26:35;;;;;;;;;3.20;3.20;;;;;32.66;50.42;98319.50;5010737;28;8845;-69
2021/06/23 09:29:16;;;;;;;;;4.00;4.00;;;;;32.50;48.58;98300.38;5009691;28;8931;-69
2021/06/23 09:32:02;;;;;;;;;2.20;2.20;;;;;32.36;48.95;98285.84;5012091;28;8927;-69
2021/06/23 09:34:33;;;;;;;;;2.60;2.60;;;;;32.22;49.40;98277.19;5012226;28;8849;-69
2021/06/23 09:37:29;;;;;;;;;2.80;2.80;;;;;31.97;49.73;98270.28;5012182;28;8887;-69
2021/06/23 09:40:21;;;;;;;;;2.00;2.00;;;;;31.85;52.76;98283.78;5011661;28;8876;-69
2021/06/23 09:43:00;;;;;;;;;3.20;3.20;;;;;31.81;51.57;98280.34;5012485;28;8865;-70
2021/06/23 09:45:30;;;;;;;;;3.60;3.60;;;;;31.85;53.70;98278.34;5012591;28;8845;-70
2021/06/23 09:48:17;;;;;;;;;3.00;3.00;;;;;31.85;53.21;98273.66;5012265;28;8833;-69
2021/06/23 09:50:45;;;;;;;;;2.00;2.00;;;;;31.92;53.98;98289.88;5012428;28;8951;-70
2021/06/23 09:53:20;;;;;;;;;2.00;2.00;;;;;31.90;52.92;98270.44;5027522;28;8864;-69
2021/06/23 09:55:50;;;;;;;;;3.00;3.00;;;;;32.01;50.92;98286.59;5012570;28;8846;-69
2021/06/23 09:58:21;;;;;;;;;2.60;2.60;;;;;31.96;53.37;98287.84;5012381;28;8845;-70
2021/06/23 10:01:11;;;;;;;;;2.00;2.00;;;;;31.91;53.73;98296.50;5012484;28;8912;-70
2021/06/23 10:03:57;;;;;;;;;3.20;3.20;;;;;31.87;50.64;98295.03;5012080;28;8956;-71
2021/06/23 10:06:37;;;;;;;;;3.80;3.80;;;;;31.83;52.99;98291.63;5012406;28;8911;-70
2021/06/23 10:09:21;;;;;;;;;3.60;3.60;;;;;31.82;53.21;98295.53;5012315;28;8833;-70
2021/06/23 10:11:56;;;;;;;;;2.60;2.60;;;;;31.81;51.19;98292.03;5012635;28;8845;-70
2021/06/23 10:14:27;;;;;;;;;2.40;2.40;;;;;31.83;54.66;98294.34;5012496;28;8951;-70
2021/06/23 10:17:03;;;;;;;;;2.80;2.80;;;;;31.82;53.65;98296.31;5013068;28;8845;-70
2021/06/23 10:19:32;;;;;;;;;3.20;3.20;;;;;31.73;53.78;98296.09;5012256;28;8860;-70
2021/06/23 10:22:05;;;;;;;;;4.40;4.40;;;;;31.81;54.12;98319.31;5012317;28;8943;-70
2021/06/23 10:24:55;;;;;;;;;3.00;3.00;;;;;31.84;51.58;98312.25;5012155;28;8953;-70
2021/06/23 10:27:24;;;;;;;;;5.00;5.00;;;;;31.85;50.80;98313.78;5012217;28;9559;-70
2021/06/23 10:29:57;;;;;;;;;1.80;1.80;;;;;31.69;53.86;98296.16;5012214;28;8842;-70
2021/06/23 10:32:27;;;;;;;;;3.60;3.60;;;;;31.78;51.16;98320.91;5012617;28;8869;-70
2021/06/23 10:34:56;;;;;;;;;1.80;1.80;;;;;31.73;50.72;98310.50;5012005;28;8826;-70
2021/06/23 10:37:25;;;;;;;;;2.00;2.00;;;;;31.69;50.66;98307.06;5012140;28;8876;-70
2021/06/23 10:39:55;;;;;;;;;2.40;2.40;;;;;31.60;50.80;98314.22;5012103;28;8927;-70
2021/06/23 10:42:25;;;;;;;;;2.00;2.00;;;;;31.56;50.74;98314.28;5012134;28;8845;-70
2021/06/23 10:44:56;;;;;;;;;3.00;3.00;;;;;31.50;50.81;98320.63;5012197;28;8853;-70
2021/06/23 10:47:42;;;;;;;;;1.00;1.00;;;;;31.45;51.92;98332.78;5012409;28;8959;-70
2021/06/23 10:50:32;;;;;;;;;2.00;2.00;;;;;31.39;51.07;98326.28;5015129;28;8858;-70
2021/06/23 10:53:02;;;;;;;;;2.40;2.40;;;;;31.32;52.15;98326.41;5030812;28;8853;-70
2021/06/23 10:55:31;;;;;;;;;2.00;2.00;;;;;31.30;51.64;98324.09;5015807;28;8879;-70
2021/06/23 10:58:10;;;;;;;;;1.20;1.20;;;;;31.30;52.70;98328.78;5015725;28;8841;-70
2021/06/23 11:00:44;;;;;;;;;1.80;1.80;;;;;31.29;51.82;98316.34;5015676;28;8833;-70
2021/06/23 11:03:14;;;;;;;;;1.40;1.00;;;;;31.34;51.80;98334.94;5015668;28;8845;-70
2021/06/23 11:05:45;;;;;;;;;0.80;0.80;;;;;31.33;51.31;98325.22;5015322;28;8845;-70
2021/06/23 11:08:30;;;;;;;;;1.00;1.00;;;;;31.33;50.97;98325.22;5015789;28;8838;-70
2021/06/23 11:11:10;;;;;;;;;2.00;2.00;;;;;31.32;51.08;98329.13;5015702;28;8837;-70
2021/06/23 11:13:40;;;;;;;;;1.80;1.80;;;;;31.26;51.55;98331.56;5015408;28;8829;-70
2021/06/23 11:16:29;;;;;;;;;2.00;2.00;;;;;31.27;53.76;98346.72;5015407;28;8980;-70
2021/06/23 11:19:10;;;;;;;;;2.00;2.00;;;;;31.27;53.42;98354.13;5015330;28;8845;-70
2021/06/23 11:21:41;;;;;;;;;2.40;2.40;;;;;31.20;53.62;98329.75;5015133;28;8879;-70
2021/06/23 11:24:16;;;;;;;;;3.00;3.00;;;;;31.32;54.41;98356.38;5015174;28;8899;-70
2021/06/23 11:26:50;;;;;;;;;1.60;1.60;;;;;31.34;52.94;98354.00;5015212;28;8861;-70
2021/06/23 11:29:24;;;;;;;;;2.00;2.00;;;;;31.38;52.72;98365.63;5015472;28;8849;-70
2021/06/23 11:32:03;;;;;;;;;1.60;1.60;;;;;31.39;52.26;98367.16;5015394;28;8841;-70
2021/06/23 11:34:47;;;;;;;;;4.20;4.20;;;;;31.38;52.16;98362.91;5015039;28;8919;-70
2021/06/23 11:37:18;;;;;;;;;3.60;3.60;;;;;31.45;52.65;98376.41;5015390;28;8939;-71
2021/06/23 11:39:47;;;;;;;;;2.00;2.00;;;;;31.45;53.30;98373.69;5015062;28;8845;-70
2021/06/23 11:42:17;;;;;;;;;3.80;3.80;;;;;31.48;53.35;98376.34;5014851;28;8939;-70
2021/06/23 11:44:46;;;;;;;;;1.00;1.00;;;;;31.52;54.32;98386.44;5014747;28;8849;-70
2021/06/23 11:47:15;;;;;;;;;3.60;3.60;;;;;31.57;53.46;98396.84;5014752;28;8970;-70
2021/06/23 11:49:44;;;;;;;;;10.50;10.50;;;;;31.61;53.67;98401.06;5014675;28;9602;-70
2021/06/23 11:52:13;;;;;;;;;8.50;8.50;;;;;31.65;53.34;98401.78;5014960;28;8833;-70
2021/06/23 11:54:41;;;;;;;;;7.50;7.50;;;;;31.66;53.23;98408.00;5014665;28;8833;-69
2021/06/23 11:57:10;;;;;;;;;7.50;7.50;;;;;31.68;52.81;98400.16;5014897;28;8857;-70
2021/06/23 11:59:43;;;;;;;;;5.60;5.60;;;;;31.78;52.53;98405.47;5029657;28;8932;-70
2021/06/23 12:02:12;;;;;;;;;5.00;5.00;;;;;31.82;52.38;98399.19;5013772;28;8833;-69
2021/06/23 12:04:40;;;;;;;;;5.00;5.00;;;;;31.84;52.67;98399.53;5014204;28;8857;-70
2021/06/23 12:07:09;;;;;;;;;2.80;2.80;;;;;31.85;52.67;98393.66;5014328;28;8964;-70
2021/06/23 12:09:37;;;;;;;;;4.00;4.00;;;;;31.87;52.42;98393.25;5013436;28;8849;-70
2021/06/23 12:12:09;;;;;;;;;3.60;3.60;;;;;31.83;52.73;98385.13;5014374;28;8888;-70
2021/06/23 12:14:39;;;;;;;;;3.60;3.60;;;;;31.77;52.73;98398.47;5014246;28;8829;-70
2021/06/23 12:17:08;;;;;;;;;3.00;3.00;;;;;31.76;52.26;98396.94;5014466;28;8853;-70
2021/06/23 12:19:38;;;;;;;;;3.40;3.40;;;;;31.78;52.82;98407.44;5014184;28;8935;-70
2021/06/23 12:22:09;;;;;;;;;4.00;4.00;;;;;31.76;53.62;98402.38;5014461;28;8908;-70